SPKWH EPGY-EPMO
Flight info
| Callsign | SPKWH |
|---|---|
| Flight time | 0h 27m |
| Altitude | 2000 |
| Route | DCT EPMOY DCT EPMOI DCT |
| Aircraft | DV20/L-SY/S |
Departure
| Time | 2026-05-07 18:38 |
|---|---|
| Airport | Grądy Airfield (EPGY) |
Arrival
| Time | 2026-05-07 19:05 |
|---|---|
| Airport | Warsaw Modlin Airport (EPMO) |
| Time | Latitude | Longitude | Altitude | Speed | Heading |
|---|---|---|---|---|---|
| 2026-05-07 18:23 | 52.83650 | 21.77429 | 399 ft | 0 kts | 3° |
| 2026-05-07 18:33 | 52.83670 | 21.77448 | 399 ft | 7 kts | 58° |
| 2026-05-07 18:34 | 52.83681 | 21.77458 | 399 ft | 0 kts | 359° |
| 2026-05-07 18:34 | 52.83707 | 21.77458 | 399 ft | 8 kts | 2° |
| 2026-05-07 18:34 | 52.83721 | 21.77498 | 399 ft | 10 kts | 95° |
| 2026-05-07 18:35 | 52.83704 | 21.77688 | 399 ft | 21 kts | 97° |
| 2026-05-07 18:35 | 52.83687 | 21.77965 | 400 ft | 22 kts | 100° |
| 2026-05-07 18:35 | 52.83669 | 21.78233 | 400 ft | 22 kts | 100° |
| 2026-05-07 18:35 | 52.83668 | 21.78340 | 400 ft | 1 kts | 270° |
| 2026-05-07 18:36 | 52.83665 | 21.78327 | 400 ft | 0 kts | 288° |
| 2026-05-07 18:36 | 52.83666 | 21.78325 | 400 ft | 0 kts | 287° |
| 2026-05-07 18:36 | 52.83669 | 21.78240 | 400 ft | 32 kts | 278° |
| 2026-05-07 18:37 | 52.83709 | 21.77614 | 501 ft | 64 kts | 283° |
| 2026-05-07 18:37 | 52.83781 | 21.76891 | 712 ft | 67 kts | 279° |
| 2026-05-07 18:37 | 52.83833 | 21.76176 | 807 ft | 75 kts | 281° |
| 2026-05-07 18:37 | 52.83866 | 21.75335 | 977 ft | 75 kts | 272° |
| 2026-05-07 18:38 | 52.83772 | 21.74465 | 1128 ft | 79 kts | 257° |
| 2026-05-07 18:38 | 52.83601 | 21.73589 | 1277 ft | 81 kts | 257° |
| 2026-05-07 18:38 | 52.83424 | 21.72701 | 1437 ft | 81 kts | 254° |
| 2026-05-07 18:38 | 52.83243 | 21.71805 | 1597 ft | 81 kts | 255° |
| 2026-05-07 18:39 | 52.83058 | 21.70916 | 1742 ft | 84 kts | 254° |
| 2026-05-07 18:39 | 52.82860 | 21.70026 | 1918 ft | 81 kts | 251° |
| 2026-05-07 18:39 | 52.82661 | 21.69170 | 2066 ft | 81 kts | 252° |
| 2026-05-07 18:39 | 52.82454 | 21.68261 | 2099 ft | 87 kts | 253° |
| 2026-05-07 18:40 | 52.82239 | 21.67340 | 2071 ft | 85 kts | 252° |
| 2026-05-07 18:40 | 52.82072 | 21.66669 | 2035 ft | 85 kts | 250° |
| 2026-05-07 18:40 | 52.81947 | 21.66206 | 2010 ft | 87 kts | 249° |
| 2026-05-07 18:40 | 52.81712 | 21.65271 | 1982 ft | 88 kts | 250° |
| 2026-05-07 18:41 | 52.81441 | 21.64341 | 1957 ft | 90 kts | 245° |
| 2026-05-07 18:41 | 52.81154 | 21.63408 | 1969 ft | 92 kts | 248° |
| 2026-05-07 18:41 | 52.80878 | 21.62431 | 1976 ft | 94 kts | 248° |
| 2026-05-07 18:41 | 52.80587 | 21.61452 | 2009 ft | 95 kts | 248° |
| 2026-05-07 18:42 | 52.80284 | 21.60487 | 2050 ft | 96 kts | 248° |
| 2026-05-07 18:42 | 52.79961 | 21.59486 | 2091 ft | 101 kts | 248° |
| 2026-05-07 18:42 | 52.79609 | 21.58440 | 2120 ft | 105 kts | 247° |
| 2026-05-07 18:42 | 52.79246 | 21.57353 | 2124 ft | 109 kts | 248° |
| 2026-05-07 18:43 | 52.78888 | 21.56282 | 2120 ft | 105 kts | 248° |
| 2026-05-07 18:43 | 52.78536 | 21.55239 | 2121 ft | 103 kts | 248° |
| 2026-05-07 18:43 | 52.78189 | 21.54213 | 2123 ft | 101 kts | 248° |
| 2026-05-07 18:43 | 52.77846 | 21.53201 | 2123 ft | 101 kts | 248° |
| 2026-05-07 18:44 | 52.77496 | 21.52175 | 2126 ft | 103 kts | 248° |
| 2026-05-07 18:44 | 52.77138 | 21.51107 | 2131 ft | 109 kts | 248° |
| 2026-05-07 18:44 | 52.76768 | 21.49991 | 2127 ft | 112 kts | 248° |
| 2026-05-07 18:44 | 52.76391 | 21.48841 | 2126 ft | 114 kts | 248° |
| 2026-05-07 18:45 | 52.76008 | 21.47681 | 2128 ft | 115 kts | 248° |
| 2026-05-07 18:45 | 52.75627 | 21.46517 | 2128 ft | 116 kts | 248° |
| 2026-05-07 18:45 | 52.75246 | 21.45346 | 2128 ft | 116 kts | 248° |
| 2026-05-07 18:45 | 52.74879 | 21.44169 | 2127 ft | 116 kts | 250° |
| 2026-05-07 18:46 | 52.74526 | 21.42971 | 2126 ft | 116 kts | 251° |
| 2026-05-07 18:46 | 52.74179 | 21.41773 | 2125 ft | 116 kts | 251° |
| 2026-05-07 18:46 | 52.73830 | 21.40572 | 2126 ft | 116 kts | 251° |
| 2026-05-07 18:46 | 52.73488 | 21.39387 | 2125 ft | 116 kts | 251° |
| 2026-05-07 18:47 | 52.73139 | 21.38175 | 2125 ft | 116 kts | 251° |
| 2026-05-07 18:47 | 52.72793 | 21.36982 | 2127 ft | 116 kts | 250° |
| 2026-05-07 18:47 | 52.72448 | 21.35788 | 2126 ft | 116 kts | 251° |
| 2026-05-07 18:47 | 52.72101 | 21.34589 | 2128 ft | 116 kts | 250° |
| 2026-05-07 18:48 | 52.71755 | 21.33388 | 2124 ft | 116 kts | 250° |
| 2026-05-07 18:48 | 52.71402 | 21.32150 | 2061 ft | 120 kts | 250° |
| 2026-05-07 18:48 | 52.71043 | 21.30907 | 2048 ft | 119 kts | 250° |
| 2026-05-07 18:48 | 52.70687 | 21.29673 | 2045 ft | 116 kts | 250° |
| 2026-05-07 18:49 | 52.70339 | 21.28474 | 2046 ft | 114 kts | 250° |
| 2026-05-07 18:49 | 52.69994 | 21.27296 | 2046 ft | 114 kts | 250° |
| 2026-05-07 18:49 | 52.69654 | 21.26137 | 2048 ft | 113 kts | 250° |
| 2026-05-07 18:49 | 52.69311 | 21.24966 | 2047 ft | 113 kts | 250° |
| 2026-05-07 18:50 | 52.68969 | 21.23790 | 2048 ft | 113 kts | 250° |
| 2026-05-07 18:50 | 52.68624 | 21.22613 | 2049 ft | 113 kts | 250° |
| 2026-05-07 18:50 | 52.68283 | 21.21452 | 2052 ft | 114 kts | 251° |
| 2026-05-07 18:50 | 52.67939 | 21.20271 | 2050 ft | 114 kts | 250° |
| 2026-05-07 18:51 | 52.67600 | 21.19105 | 2046 ft | 114 kts | 250° |
| 2026-05-07 18:51 | 52.67253 | 21.17925 | 2050 ft | 113 kts | 250° |
| 2026-05-07 18:51 | 52.66954 | 21.16738 | 2048 ft | 112 kts | 255° |
| 2026-05-07 18:51 | 52.66673 | 21.15539 | 2050 ft | 112 kts | 255° |
| 2026-05-07 18:52 | 52.66396 | 21.14345 | 2050 ft | 112 kts | 255° |
| 2026-05-07 18:52 | 52.66111 | 21.13134 | 2047 ft | 113 kts | 256° |
| 2026-05-07 18:52 | 52.65828 | 21.11939 | 2050 ft | 113 kts | 255° |
| 2026-05-07 18:52 | 52.65538 | 21.10678 | 1923 ft | 124 kts | 255° |
| 2026-05-07 18:53 | 52.65233 | 21.09328 | 1865 ft | 126 kts | 255° |
| 2026-05-07 18:53 | 52.64935 | 21.07981 | 1865 ft | 124 kts | 255° |
| 2026-05-07 18:53 | 52.64641 | 21.06641 | 1861 ft | 124 kts | 256° |
| 2026-05-07 18:53 | 52.64350 | 21.05318 | 1859 ft | 123 kts | 255° |
| 2026-05-07 18:54 | 52.64064 | 21.03996 | 1862 ft | 122 kts | 255° |
| 2026-05-07 18:54 | 52.63776 | 21.02687 | 1862 ft | 122 kts | 255° |
| 2026-05-07 18:54 | 52.63489 | 21.01385 | 1859 ft | 122 kts | 255° |
| 2026-05-07 18:54 | 52.63196 | 21.00044 | 1862 ft | 122 kts | 256° |
| 2026-05-07 18:55 | 52.62906 | 20.98733 | 1858 ft | 122 kts | 256° |
| 2026-05-07 18:55 | 52.62617 | 20.97425 | 1862 ft | 122 kts | 256° |
| 2026-05-07 18:55 | 52.62316 | 20.96103 | 1862 ft | 121 kts | 255° |
| 2026-05-07 18:55 | 52.62023 | 20.94810 | 1864 ft | 122 kts | 255° |
| 2026-05-07 18:56 | 52.61725 | 20.93498 | 1863 ft | 121 kts | 256° |
| 2026-05-07 18:56 | 52.61436 | 20.92207 | 1859 ft | 122 kts | 255° |
| 2026-05-07 18:56 | 52.61142 | 20.90904 | 1858 ft | 122 kts | 255° |
| 2026-05-07 18:56 | 52.60857 | 20.89581 | 1866 ft | 122 kts | 256° |
| 2026-05-07 18:57 | 52.60572 | 20.88271 | 1867 ft | 122 kts | 256° |
| 2026-05-07 18:57 | 52.60279 | 20.86946 | 1859 ft | 122 kts | 255° |
| 2026-05-07 18:57 | 52.59999 | 20.85647 | 1863 ft | 122 kts | 256° |
| 2026-05-07 18:57 | 52.59713 | 20.84329 | 1866 ft | 121 kts | 255° |
| 2026-05-07 18:58 | 52.59430 | 20.83022 | 1867 ft | 122 kts | 255° |
| 2026-05-07 18:58 | 52.59125 | 20.81723 | 1835 ft | 119 kts | 252° |
| 2026-05-07 18:58 | 52.58782 | 20.80487 | 1687 ft | 121 kts | 249° |
| 2026-05-07 18:58 | 52.58383 | 20.79258 | 1600 ft | 122 kts | 245° |
| 2026-05-07 18:59 | 52.57960 | 20.78091 | 1575 ft | 118 kts | 243° |
| 2026-05-07 18:59 | 52.57524 | 20.76926 | 1467 ft | 121 kts | 238° |
| 2026-05-07 18:59 | 52.56869 | 20.76041 | 1406 ft | 122 kts | 216° |
| 2026-05-07 18:59 | 52.56155 | 20.75300 | 1377 ft | 120 kts | 218° |
| 2026-05-07 19:00 | 52.55479 | 20.74518 | 1413 ft | 120 kts | 220° |
| 2026-05-07 19:00 | 52.54781 | 20.73721 | 1451 ft | 123 kts | 213° |
| 2026-05-07 19:00 | 52.54007 | 20.73178 | 1506 ft | 119 kts | 193° |
| 2026-05-07 19:00 | 52.53173 | 20.73075 | 1513 ft | 119 kts | 182° |
| 2026-05-07 19:01 | 52.52332 | 20.73102 | 1544 ft | 120 kts | 175° |
| 2026-05-07 19:01 | 52.51504 | 20.73181 | 1576 ft | 121 kts | 174° |
| 2026-05-07 19:01 | 52.50641 | 20.73177 | 1556 ft | 123 kts | 180° |
| 2026-05-07 19:01 | 52.49795 | 20.73122 | 1489 ft | 120 kts | 181° |
| 2026-05-07 19:02 | 52.48963 | 20.73025 | 1376 ft | 121 kts | 186° |
| 2026-05-07 19:02 | 52.48133 | 20.72910 | 1311 ft | 118 kts | 185° |
| 2026-05-07 19:02 | 52.47337 | 20.72721 | 1235 ft | 112 kts | 189° |
| 2026-05-07 19:02 | 52.46617 | 20.72490 | 1208 ft | 93 kts | 194° |
| 2026-05-07 19:03 | 52.46008 | 20.72216 | 1109 ft | 86 kts | 212° |
| 2026-05-07 19:03 | 52.45711 | 20.71502 | 985 ft | 75 kts | 261° |
| 2026-05-07 19:03 | 52.45615 | 20.70665 | 885 ft | 73 kts | 268° |
| 2026-05-07 19:03 | 52.45552 | 20.69836 | 762 ft | 74 kts | 268° |
| 2026-05-07 19:04 | 52.45472 | 20.69006 | 632 ft | 72 kts | 264° |
| 2026-05-07 19:04 | 52.45406 | 20.68192 | 514 ft | 69 kts | 265° |
| 2026-05-07 19:04 | 52.45336 | 20.67462 | 400 ft | 61 kts | 266° |
| 2026-05-07 19:04 | 52.45272 | 20.66808 | 330 ft | 52 kts | 260° |
| 2026-05-07 19:05 | 52.45227 | 20.66270 | 330 ft | 41 kts | 258° |
| 2026-05-07 19:05 | 52.45180 | 20.66007 | 330 ft | 13 kts | 226° |
| 2026-05-07 19:05 | 52.45103 | 20.66021 | 330 ft | 15 kts | 160° |
| 2026-05-07 19:05 | 52.44996 | 20.66082 | 331 ft | 14 kts | 161° |
| 2026-05-07 19:06 | 52.44907 | 20.66136 | 332 ft | 15 kts | 151° |
| 2026-05-07 19:06 | 52.44909 | 20.66508 | 332 ft | 17 kts | 79° |
| 2026-05-07 19:06 | 52.44927 | 20.66707 | 332 ft | 16 kts | 82° |
| 2026-05-07 19:07 | 52.44938 | 20.66825 | 331 ft | 3 kts | 106° |
| 2026-05-07 19:07 | 52.44908 | 20.66842 | 332 ft | 0 kts | 174° |
| 2026-05-07 19:08 | 52.44895 | 20.66845 | 332 ft | 3 kts | 166° |
| 2026-05-07 19:08 | 52.44883 | 20.66841 | 332 ft | 1 kts | 107° |
| 2026-05-07 19:08 | 52.44885 | 20.66843 | 332 ft | 0 kts | 353° |
| 2026-05-07 19:12 | 52.44867 | 20.66886 | 333 ft | 0 kts | 274° |